sensor_id;sensor_type;location;lat;lon;timestamp;temperature;humidity
39881;DHT22;25554;44.954;10.068;2022-08-27T00:01:34;23.70;99.90
39881;DHT22;25554;44.954;10.068;2022-08-27T00:04:00;23.70;99.90
39881;DHT22;25554;44.954;10.068;2022-08-27T00:06:27;23.60;99.90
39881;DHT22;25554;44.954;10.068;2022-08-27T00:08:54;23.60;99.90
39881;DHT22;25554;44.954;10.068;2022-08-27T00:11:22;23.60;99.90
39881;DHT22;25554;44.954;10.068;2022-08-27T00:13:51;23.60;99.90
39881;DHT22;25554;44.954;10.068;2022-08-27T00:16:17;23.70;99.90
39881;DHT22;25554;44.954;10.068;2022-08-27T00:18:45;23.60;99.90
39881;DHT22;25554;44.954;10.068;2022-08-27T00:21:12;23.60;99.90
39881;DHT22;25554;44.954;10.068;2022-08-27T00:23:38;23.60;99.90
39881;DHT22;25554;44.954;10.068;2022-08-27T00:26:06;23.60;99.90
39881;DHT22;25554;44.954;10.068;2022-08-27T00:28:33;23.50;99.90
39881;DHT22;25554;44.954;10.068;2022-08-27T00:31:00;23.50;99.90
39881;DHT22;25554;44.954;10.068;2022-08-27T00:33:26;23.50;99.90
39881;DHT22;25554;44.954;10.068;2022-08-27T00:35:53;23.40;99.90
39881;DHT22;25554;44.954;10.068;2022-08-27T00:38:20;23.40;99.90
39881;DHT22;25554;44.954;10.068;2022-08-27T00:40:47;23.50;99.90
39881;DHT22;25554;44.954;10.068;2022-08-27T00:43:21;23.50;99.90
39881;DHT22;25554;44.954;10.068;2022-08-27T00:45:47;23.50;99.90
39881;DHT22;25554;44.954;10.068;2022-08-27T00:48:15;23.50;99.90
39881;DHT22;25554;44.954;10.068;2022-08-27T00:50:46;23.50;99.90
39881;DHT22;25554;44.954;10.068;2022-08-27T00:53:17;23.40;99.90
39881;DHT22;25554;44.954;10.068;2022-08-27T00:55:48;23.40;99.90
39881;DHT22;25554;44.954;10.068;2022-08-27T00:58:21;23.40;99.90
39881;DHT22;25554;44.954;10.068;2022-08-27T01:00:51;23.40;99.90
39881;DHT22;25554;44.954;10.068;2022-08-27T01:03:18;23.40;99.90
39881;DHT22;25554;44.954;10.068;2022-08-27T01:05:46;23.40;99.90
39881;DHT22;25554;44.954;10.068;2022-08-27T01:08:18;23.40;99.90
39881;DHT22;25554;44.954;10.068;2022-08-27T01:10:45;23.30;99.90
39881;DHT22;25554;44.954;10.068;2022-08-27T01:13:17;23.30;99.90
39881;DHT22;25554;44.954;10.068;2022-08-27T01:15:44;23.40;99.90
39881;DHT22;25554;44.954;10.068;2022-08-27T01:18:12;23.20;99.90
39881;DHT22;25554;44.954;10.068;2022-08-27T01:23:47;23.20;99.90
39881;DHT22;25554;44.954;10.068;2022-08-27T01:26:16;23.30;99.90
39881;DHT22;25554;44.954;10.068;2022-08-27T01:28:42;23.30;99.90
39881;DHT22;25554;44.954;10.068;2022-08-27T01:31:11;23.30;99.90
39881;DHT22;25554;44.954;10.068;2022-08-27T01:33:38;23.30;99.90
39881;DHT22;25554;44.954;10.068;2022-08-27T01:36:06;23.30;99.90
39881;DHT22;25554;44.954;10.068;2022-08-27T01:38:33;23.30;99.90
39881;DHT22;25554;44.954;10.068;2022-08-27T01:40:59;23.30;99.90
39881;DHT22;25554;44.954;10.068;2022-08-27T01:43:27;23.30;99.90
39881;DHT22;25554;44.954;10.068;2022-08-27T01:45:56;23.20;99.90
39881;DHT22;25554;44.954;10.068;2022-08-27T01:48:22;23.30;99.90
39881;DHT22;25554;44.954;10.068;2022-08-27T01:50:49;23.30;99.90
39881;DHT22;25554;44.954;10.068;2022-08-27T01:53:18;23.20;99.90
39881;DHT22;25554;44.954;10.068;2022-08-27T01:55:47;23.10;99.90
39881;DHT22;25554;44.954;10.068;2022-08-27T01:58:13;23.10;99.90
39881;DHT22;25554;44.954;10.068;2022-08-27T02:00:42;23.00;99.90
39881;DHT22;25554;44.954;10.068;2022-08-27T02:03:09;22.90;99.90
39881;DHT22;25554;44.954;10.068;2022-08-27T02:05:37;22.90;99.90
39881;DHT22;25554;44.954;10.068;2022-08-27T02:08:05;22.90;99.90
39881;DHT22;25554;44.954;10.068;2022-08-27T02:10:36;22.80;99.90
39881;DHT22;25554;44.954;10.068;2022-08-27T02:13:02;22.80;99.90
39881;DHT22;25554;44.954;10.068;2022-08-27T02:15:30;22.70;99.90
39881;DHT22;25554;44.954;10.068;2022-08-27T02:17:56;22.80;99.90
39881;DHT22;25554;44.954;10.068;2022-08-27T02:20:22;22.80;99.90
39881;DHT22;25554;44.954;10.068;2022-08-27T02:22:49;22.90;99.90
39881;DHT22;25554;44.954;10.068;2022-08-27T02:25:16;22.90;99.90
39881;DHT22;25554;44.954;10.068;2022-08-27T02:27:46;22.90;99.90
39881;DHT22;25554;44.954;10.068;2022-08-27T02:30:16;22.90;99.90
39881;DHT22;25554;44.954;10.068;2022-08-27T02:32:46;23.00;99.90
39881;DHT22;25554;44.954;10.068;2022-08-27T02:35:14;23.00;99.90
39881;DHT22;25554;44.954;10.068;2022-08-27T02:37:41;23.00;99.90
39881;DHT22;25554;44.954;10.068;2022-08-27T02:40:10;23.00;99.90
39881;DHT22;25554;44.954;10.068;2022-08-27T02:42:37;23.00;99.90
39881;DHT22;25554;44.954;10.068;2022-08-27T02:45:03;23.00;99.90
39881;DHT22;25554;44.954;10.068;2022-08-27T02:47:33;23.00;99.90
39881;DHT22;25554;44.954;10.068;2022-08-27T02:50:00;22.90;99.90
39881;DHT22;25554;44.954;10.068;2022-08-27T02:52:27;22.80;99.90
39881;DHT22;25554;44.954;10.068;2022-08-27T02:54:57;22.80;99.90
39881;DHT22;25554;44.954;10.068;2022-08-27T02:57:24;22.80;99.90
39881;DHT22;25554;44.954;10.068;2022-08-27T02:59:51;22.80;99.90
39881;DHT22;25554;44.954;10.068;2022-08-27T03:02:18;22.90;99.90
39881;DHT22;25554;44.954;10.068;2022-08-27T03:04:45;22.90;99.90
39881;DHT22;25554;44.954;10.068;2022-08-27T03:07:12;22.90;99.90
39881;DHT22;25554;44.954;10.068;2022-08-27T03:09:39;22.90;99.90
39881;DHT22;25554;44.954;10.068;2022-08-27T03:12:05;22.90;99.90
39881;DHT22;25554;44.954;10.068;2022-08-27T03:14:32;22.90;99.90
39881;DHT22;25554;44.954;10.068;2022-08-27T03:16:58;22.90;99.90
39881;DHT22;25554;44.954;10.068;2022-08-27T03:19:44;22.90;99.90
39881;DHT22;25554;44.954;10.068;2022-08-27T03:22:11;22.90;99.90
39881;DHT22;25554;44.954;10.068;2022-08-27T03:24:38;22.90;99.90
39881;DHT22;25554;44.954;10.068;2022-08-27T03:27:07;22.90;99.90
39881;DHT22;25554;44.954;10.068;2022-08-27T03:29:35;22.90;99.90
39881;DHT22;25554;44.954;10.068;2022-08-27T03:32:04;22.90;99.90
39881;DHT22;25554;44.954;10.068;2022-08-27T03:34:31;23.00;99.90
39881;DHT22;25554;44.954;10.068;2022-08-27T03:36:58;23.00;99.90
39881;DHT22;25554;44.954;10.068;2022-08-27T03:39:25;23.00;99.90
39881;DHT22;25554;44.954;10.068;2022-08-27T03:41:51;23.10;99.90
39881;DHT22;25554;44.954;10.068;2022-08-27T03:44:17;23.10;99.90
39881;DHT22;25554;44.954;10.068;2022-08-27T03:46:44;23.10;99.90
39881;DHT22;25554;44.954;10.068;2022-08-27T03:49:10;23.10;99.90
39881;DHT22;25554;44.954;10.068;2022-08-27T03:51:36;23.10;99.90
39881;DHT22;25554;44.954;10.068;2022-08-27T03:54:02;23.00;99.90
39881;DHT22;25554;44.954;10.068;2022-08-27T03:56:29;23.00;99.90
39881;DHT22;25554;44.954;10.068;2022-08-27T03:58:55;22.90;99.90
39881;DHT22;25554;44.954;10.068;2022-08-27T04:01:21;22.90;99.90
39881;DHT22;25554;44.954;10.068;2022-08-27T04:03:48;22.90;99.90
39881;DHT22;25554;44.954;10.068;2022-08-27T04:06:14;22.90;99.90
39881;DHT22;25554;44.954;10.068;2022-08-27T04:08:40;22.90;99.90
39881;DHT22;25554;44.954;10.068;2022-08-27T04:11:07;22.90;99.90
39881;DHT22;25554;44.954;10.068;2022-08-27T04:13:33;22.90;99.90
39881;DHT22;25554;44.954;10.068;2022-08-27T04:15:59;22.90;99.90
39881;DHT22;25554;44.954;10.068;2022-08-27T04:18:26;22.80;99.90
39881;DHT22;25554;44.954;10.068;2022-08-27T04:20:52;22.90;99.90
39881;DHT22;25554;44.954;10.068;2022-08-27T04:23:18;22.90;99.90
39881;DHT22;25554;44.954;10.068;2022-08-27T04:25:45;22.80;99.90
39881;DHT22;25554;44.954;10.068;2022-08-27T04:28:13;22.80;99.90
39881;DHT22;25554;44.954;10.068;2022-08-27T04:30:41;22.70;99.90
39881;DHT22;25554;44.954;10.068;2022-08-27T04:33:07;22.70;99.90
39881;DHT22;25554;44.954;10.068;2022-08-27T04:35:34;22.60;99.90
39881;DHT22;25554;44.954;10.068;2022-08-27T04:38:00;22.50;99.90
39881;DHT22;25554;44.954;10.068;2022-08-27T04:40:27;22.60;99.90
39881;DHT22;25554;44.954;10.068;2022-08-27T04:43:14;22.50;99.90
39881;DHT22;25554;44.954;10.068;2022-08-27T04:45:46;22.60;99.90
39881;DHT22;25554;44.954;10.068;2022-08-27T04:48:16;22.60;99.90
39881;DHT22;25554;44.954;10.068;2022-08-27T04:50:44;22.60;99.90
39881;DHT22;25554;44.954;10.068;2022-08-27T04:53:12;22.60;99.90
39881;DHT22;25554;44.954;10.068;2022-08-27T04:55:47;22.60;99.90
39881;DHT22;25554;44.954;10.068;2022-08-27T04:58:14;22.70;99.90
39881;DHT22;25554;44.954;10.068;2022-08-27T05:00:43;22.70;99.90
39881;DHT22;25554;44.954;10.068;2022-08-27T05:03:10;22.70;99.90
39881;DHT22;25554;44.954;10.068;2022-08-27T05:05:37;22.70;99.90
39881;DHT22;25554;44.954;10.068;2022-08-27T05:08:03;22.70;99.90
39881;DHT22;25554;44.954;10.068;2022-08-27T05:10:41;22.70;99.90
39881;DHT22;25554;44.954;10.068;2022-08-27T05:13:08;22.70;99.90
39881;DHT22;25554;44.954;10.068;2022-08-27T05:15:35;22.60;99.90
39881;DHT22;25554;44.954;10.068;2022-08-27T05:18:02;22.80;99.90
39881;DHT22;25554;44.954;10.068;2022-08-27T05:20:31;22.80;99.90
39881;DHT22;25554;44.954;10.068;2022-08-27T05:22:58;22.80;99.90
39881;DHT22;25554;44.954;10.068;2022-08-27T05:25:25;22.80;99.90
39881;DHT22;25554;44.954;10.068;2022-08-27T05:27:52;22.80;99.90
39881;DHT22;25554;44.954;10.068;2022-08-27T05:30:18;22.90;99.90
39881;DHT22;25554;44.954;10.068;2022-08-27T05:32:45;22.90;99.90
39881;DHT22;25554;44.954;10.068;2022-08-27T05:35:12;23.00;99.90
39881;DHT22;25554;44.954;10.068;2022-08-27T05:37:38;23.00;99.90
39881;DHT22;25554;44.954;10.068;2022-08-27T05:40:08;23.00;99.90
39881;DHT22;25554;44.954;10.068;2022-08-27T05:42:35;23.10;99.90
39881;DHT22;25554;44.954;10.068;2022-08-27T05:45:01;23.10;99.90
39881;DHT22;25554;44.954;10.068;2022-08-27T05:47:27;23.10;99.90
39881;DHT22;25554;44.954;10.068;2022-08-27T05:49:54;23.10;99.90
39881;DHT22;25554;44.954;10.068;2022-08-27T05:52:20;23.10;99.90
39881;DHT22;25554;44.954;10.068;2022-08-27T05:54:47;23.10;99.90
39881;DHT22;25554;44.954;10.068;2022-08-27T05:57:13;23.10;99.90
39881;DHT22;25554;44.954;10.068;2022-08-27T05:59:39;23.20;99.90
39881;DHT22;25554;44.954;10.068;2022-08-27T06:02:24;23.10;99.90
39881;DHT22;25554;44.954;10.068;2022-08-27T06:04:50;23.20;99.90
39881;DHT22;25554;44.954;10.068;2022-08-27T06:07:17;23.20;99.90
39881;DHT22;25554;44.954;10.068;2022-08-27T06:09:44;23.20;99.90
39881;DHT22;25554;44.954;10.068;2022-08-27T06:12:10;23.10;99.90
39881;DHT22;25554;44.954;10.068;2022-08-27T06:14:36;23.30;99.90
39881;DHT22;25554;44.954;10.068;2022-08-27T06:17:03;23.30;99.90
39881;DHT22;25554;44.954;10.068;2022-08-27T06:19:31;23.30;99.90
39881;DHT22;25554;44.954;10.068;2022-08-27T06:21:59;23.40;99.90
39881;DHT22;25554;44.954;10.068;2022-08-27T06:24:28;23.50;99.90
39881;DHT22;25554;44.954;10.068;2022-08-27T06:26:54;23.70;99.90
39881;DHT22;25554;44.954;10.068;2022-08-27T06:29:22;23.60;99.90
39881;DHT22;25554;44.954;10.068;2022-08-27T06:31:50;23.90;99.90
39881;DHT22;25554;44.954;10.068;2022-08-27T06:34:17;24.20;99.90
39881;DHT22;25554;44.954;10.068;2022-08-27T06:36:43;24.50;99.90
39881;DHT22;25554;44.954;10.068;2022-08-27T06:39:10;24.60;99.90
39881;DHT22;25554;44.954;10.068;2022-08-27T06:41:41;24.50;99.90
39881;DHT22;25554;44.954;10.068;2022-08-27T06:44:12;24.40;99.90
39881;DHT22;25554;44.954;10.068;2022-08-27T06:46:39;24.40;99.90
39881;DHT22;25554;44.954;10.068;2022-08-27T06:49:06;24.30;99.90
39881;DHT22;25554;44.954;10.068;2022-08-27T06:51:35;24.20;99.90
39881;DHT22;25554;44.954;10.068;2022-08-27T06:54:04;24.20;99.90
39881;DHT22;25554;44.954;10.068;2022-08-27T06:56:31;24.20;99.90
39881;DHT22;25554;44.954;10.068;2022-08-27T06:59:00;24.20;99.90
39881;DHT22;25554;44.954;10.068;2022-08-27T07:01:30;24.20;99.90
39881;DHT22;25554;44.954;10.068;2022-08-27T07:04:00;24.20;99.90
39881;DHT22;25554;44.954;10.068;2022-08-27T07:06:29;24.20;99.90
39881;DHT22;25554;44.954;10.068;2022-08-27T07:08:56;24.30;99.90
39881;DHT22;25554;44.954;10.068;2022-08-27T07:11:23;24.30;99.90
39881;DHT22;25554;44.954;10.068;2022-08-27T07:13:49;24.30;99.90
39881;DHT22;25554;44.954;10.068;2022-08-27T07:16:20;24.40;99.90
39881;DHT22;25554;44.954;10.068;2022-08-27T07:18:52;24.40;99.90
39881;DHT22;25554;44.954;10.068;2022-08-27T07:21:19;24.50;99.90
39881;DHT22;25554;44.954;10.068;2022-08-27T07:23:48;24.50;99.90
39881;DHT22;25554;44.954;10.068;2022-08-27T07:26:15;24.50;99.90
39881;DHT22;25554;44.954;10.068;2022-08-27T07:28:43;24.50;99.90
39881;DHT22;25554;44.954;10.068;2022-08-27T07:31:12;24.40;99.90
39881;DHT22;25554;44.954;10.068;2022-08-27T07:33:40;24.40;99.90
39881;DHT22;25554;44.954;10.068;2022-08-27T07:36:06;24.40;99.90
39881;DHT22;25554;44.954;10.068;2022-08-27T07:38:34;24.50;99.90
39881;DHT22;25554;44.954;10.068;2022-08-27T07:41:09;24.50;99.90
39881;DHT22;25554;44.954;10.068;2022-08-27T07:43:36;24.70;99.90
39881;DHT22;25554;44.954;10.068;2022-08-27T07:46:21;25.00;99.90
39881;DHT22;25554;44.954;10.068;2022-08-27T07:48:49;25.30;99.90
39881;DHT22;25554;44.954;10.068;2022-08-27T07:51:20;25.30;99.90
39881;DHT22;25554;44.954;10.068;2022-08-27T07:53:47;25.30;99.90
39881;DHT22;25554;44.954;10.068;2022-08-27T07:56:13;25.20;99.90
39881;DHT22;25554;44.954;10.068;2022-08-27T07:58:40;25.20;99.90
39881;DHT22;25554;44.954;10.068;2022-08-27T08:01:07;25.20;99.90
39881;DHT22;25554;44.954;10.068;2022-08-27T08:03:33;25.20;99.90
39881;DHT22;25554;44.954;10.068;2022-08-27T08:06:03;25.20;99.90
39881;DHT22;25554;44.954;10.068;2022-08-27T08:08:32;25.20;99.90
39881;DHT22;25554;44.954;10.068;2022-08-27T08:10:59;25.00;99.90
39881;DHT22;25554;44.954;10.068;2022-08-27T08:13:25;24.90;99.90
39881;DHT22;25554;44.954;10.068;2022-08-27T08:15:51;24.80;99.90
39881;DHT22;25554;44.954;10.068;2022-08-27T08:18:18;24.70;99.90
39881;DHT22;25554;44.954;10.068;2022-08-27T08:20:44;24.60;99.90
39881;DHT22;25554;44.954;10.068;2022-08-27T08:23:12;24.60;99.90
39881;DHT22;25554;44.954;10.068;2022-08-27T08:25:40;24.60;99.90
39881;DHT22;25554;44.954;10.068;2022-08-27T08:28:06;24.60;99.90
39881;DHT22;25554;44.954;10.068;2022-08-27T08:30:33;24.60;99.90
39881;DHT22;25554;44.954;10.068;2022-08-27T08:32:59;24.60;99.90
39881;DHT22;25554;44.954;10.068;2022-08-27T08:35:26;24.50;99.90
39881;DHT22;25554;44.954;10.068;2022-08-27T08:37:52;24.00;99.90
39881;DHT22;25554;44.954;10.068;2022-08-27T08:40:35;23.60;99.90
39881;DHT22;25554;44.954;10.068;2022-08-27T08:43:02;23.10;99.90
39881;DHT22;25554;44.954;10.068;2022-08-27T08:45:33;22.70;99.90
39881;DHT22;25554;44.954;10.068;2022-08-27T08:48:06;22.20;99.90
39881;DHT22;25554;44.954;10.068;2022-08-27T08:50:38;21.50;99.90
39881;DHT22;25554;44.954;10.068;2022-08-27T08:54:02;21.00;99.90
39881;DHT22;25554;44.954;10.068;2022-08-27T08:56:07;20.70;99.90
39881;DHT22;25554;44.954;10.068;2022-08-27T09:01:20;20.30;99.90
39881;DHT22;25554;44.954;10.068;2022-08-27T09:04:01;20.30;99.90
39881;DHT22;25554;44.954;10.068;2022-08-27T09:06:40;20.10;99.90
39881;DHT22;25554;44.954;10.068;2022-08-27T09:12:19;20.10;99.90
39881;DHT22;25554;44.954;10.068;2022-08-27T09:15:12;20.40;99.90
39881;DHT22;25554;44.954;10.068;2022-08-27T09:17:39;20.50;99.90
39881;DHT22;25554;44.954;10.068;2022-08-27T09:20:08;20.70;99.90
39881;DHT22;25554;44.954;10.068;2022-08-27T09:22:52;20.80;99.90
39881;DHT22;25554;44.954;10.068;2022-08-27T09:25:34;21.00;99.90
39881;DHT22;25554;44.954;10.068;2022-08-27T09:28:06;21.00;99.90
39881;DHT22;25554;44.954;10.068;2022-08-27T09:30:54;21.00;99.90
39881;DHT22;25554;44.954;10.068;2022-08-27T09:33:24;21.10;99.90
39881;DHT22;25554;44.954;10.068;2022-08-27T09:35:51;21.00;99.90
39881;DHT22;25554;44.954;10.068;2022-08-27T09:38:29;21.10;99.90
39881;DHT22;25554;44.954;10.068;2022-08-27T09:41:04;21.10;99.90
39881;DHT22;25554;44.954;10.068;2022-08-27T09:43:31;21.20;99.90
39881;DHT22;25554;44.954;10.068;2022-08-27T09:46:01;21.30;99.90
39881;DHT22;25554;44.954;10.068;2022-08-27T09:48:32;21.30;99.90
39881;DHT22;25554;44.954;10.068;2022-08-27T09:51:04;21.40;99.90
39881;DHT22;25554;44.954;10.068;2022-08-27T09:53:42;21.40;99.90
39881;DHT22;25554;44.954;10.068;2022-08-27T09:56:46;21.50;99.90
39881;DHT22;25554;44.954;10.068;2022-08-27T09:59:24;21.50;99.90
39881;DHT22;25554;44.954;10.068;2022-08-27T10:01:55;21.60;99.90
39881;DHT22;25554;44.954;10.068;2022-08-27T10:04:36;21.70;99.90
39881;DHT22;25554;44.954;10.068;2022-08-27T10:10:25;21.80;99.90
39881;DHT22;25554;44.954;10.068;2022-08-27T10:13:02;21.90;99.90
39881;DHT22;25554;44.954;10.068;2022-08-27T10:15:43;22.00;99.90
39881;DHT22;25554;44.954;10.068;2022-08-27T10:18:19;22.00;99.90
39881;DHT22;25554;44.954;10.068;2022-08-27T10:21:18;22.10;99.90
39881;DHT22;25554;44.954;10.068;2022-08-27T10:24:10;22.20;99.90
39881;DHT22;25554;44.954;10.068;2022-08-27T10:32:20;22.60;99.90
39881;DHT22;25554;44.954;10.068;2022-08-27T10:35:14;22.70;99.90
39881;DHT22;25554;44.954;10.068;2022-08-27T10:37:47;22.70;99.90
39881;DHT22;25554;44.954;10.068;2022-08-27T10:40:49;22.80;99.90
39881;DHT22;25554;44.954;10.068;2022-08-27T10:54:47;23.90;99.90
39881;DHT22;25554;44.954;10.068;2022-08-27T10:59:48;24.80;99.90
39881;DHT22;25554;44.954;10.068;2022-08-27T11:02:29;25.00;99.90
39881;DHT22;25554;44.954;10.068;2022-08-27T11:04:59;25.20;99.90
39881;DHT22;25554;44.954;10.068;2022-08-27T11:07:33;25.40;99.90
39881;DHT22;25554;44.954;10.068;2022-08-27T11:10:04;25.70;99.90
39881;DHT22;25554;44.954;10.068;2022-08-27T11:12:43;26.00;99.90
39881;DHT22;25554;44.954;10.068;2022-08-27T11:15:29;26.10;99.90
39881;DHT22;25554;44.954;10.068;2022-08-27T11:18:00;26.00;99.90
39881;DHT22;25554;44.954;10.068;2022-08-27T11:23:17;26.30;99.90
39881;DHT22;25554;44.954;10.068;2022-08-27T11:28:12;26.50;99.90
39881;DHT22;25554;44.954;10.068;2022-08-27T11:30:45;26.60;99.90
39881;DHT22;25554;44.954;10.068;2022-08-27T11:36:36;26.80;99.90
39881;DHT22;25554;44.954;10.068;2022-08-27T11:42:13;26.80;99.90
39881;DHT22;25554;44.954;10.068;2022-08-27T11:44:45;26.70;99.90
39881;DHT22;25554;44.954;10.068;2022-08-27T11:47:23;26.70;99.90
39881;DHT22;25554;44.954;10.068;2022-08-27T11:49:53;26.50;99.90
39881;DHT22;25554;44.954;10.068;2022-08-27T11:52:27;26.40;99.90
39881;DHT22;25554;44.954;10.068;2022-08-27T11:55:08;26.30;99.90
39881;DHT22;25554;44.954;10.068;2022-08-27T11:57:37;26.20;99.90
39881;DHT22;25554;44.954;10.068;2022-08-27T12:03:04;26.40;99.90
39881;DHT22;25554;44.954;10.068;2022-08-27T12:11:02;25.90;99.90
39881;DHT22;25554;44.954;10.068;2022-08-27T12:13:41;25.90;99.90
39881;DHT22;25554;44.954;10.068;2022-08-27T12:24:51;25.80;99.90
39881;DHT22;25554;44.954;10.068;2022-08-27T12:30:21;25.60;99.90
39881;DHT22;25554;44.954;10.068;2022-08-27T12:32:52;25.80;99.90
39881;DHT22;25554;44.954;10.068;2022-08-27T12:35:30;26.00;99.90
39881;DHT22;25554;44.954;10.068;2022-08-27T12:38:14;26.20;99.90
39881;DHT22;25554;44.954;10.068;2022-08-27T12:40:50;26.40;99.90
39881;DHT22;25554;44.954;10.068;2022-08-27T12:43:26;26.10;99.90
39881;DHT22;25554;44.954;10.068;2022-08-27T12:46:04;26.30;99.90
39881;DHT22;25554;44.954;10.068;2022-08-27T12:48:41;26.50;99.90
39881;DHT22;25554;44.954;10.068;2022-08-27T12:53:43;26.50;99.90
39881;DHT22;25554;44.954;10.068;2022-08-27T13:02:07;26.10;99.90
39881;DHT22;25554;44.954;10.068;2022-08-27T13:04:40;26.20;99.90
39881;DHT22;25554;44.954;10.068;2022-08-27T13:07:07;26.50;99.90
39881;DHT22;25554;44.954;10.068;2022-08-27T13:09:34;26.40;99.90
39881;DHT22;25554;44.954;10.068;2022-08-27T13:12:03;26.20;99.90
39881;DHT22;25554;44.954;10.068;2022-08-27T13:14:36;26.30;99.90
39881;DHT22;25554;44.954;10.068;2022-08-27T13:17:15;26.50;99.90
39881;DHT22;25554;44.954;10.068;2022-08-27T13:20:02;26.50;99.90
39881;DHT22;25554;44.954;10.068;2022-08-27T13:22:36;26.50;99.90
39881;DHT22;25554;44.954;10.068;2022-08-27T13:25:04;26.30;99.90
39881;DHT22;25554;44.954;10.068;2022-08-27T13:27:33;26.10;99.90
39881;DHT22;25554;44.954;10.068;2022-08-27T13:30:05;26.10;99.90
39881;DHT22;25554;44.954;10.068;2022-08-27T13:32:32;26.20;99.90
39881;DHT22;25554;44.954;10.068;2022-08-27T13:35:00;26.20;99.90
39881;DHT22;25554;44.954;10.068;2022-08-27T13:37:36;26.40;99.90
39881;DHT22;25554;44.954;10.068;2022-08-27T13:40:04;26.50;99.90
39881;DHT22;25554;44.954;10.068;2022-08-27T13:42:31;26.60;99.90
39881;DHT22;25554;44.954;10.068;2022-08-27T13:45:03;26.70;99.90
39881;DHT22;25554;44.954;10.068;2022-08-27T13:47:40;26.60;99.90
39881;DHT22;25554;44.954;10.068;2022-08-27T13:50:17;26.80;99.90
39881;DHT22;25554;44.954;10.068;2022-08-27T13:52:45;27.20;99.90
39881;DHT22;25554;44.954;10.068;2022-08-27T13:55:30;27.50;99.90
39881;DHT22;25554;44.954;10.068;2022-08-27T13:57:56;27.60;99.90
39881;DHT22;25554;44.954;10.068;2022-08-27T14:00:24;27.60;99.90
39881;DHT22;25554;44.954;10.068;2022-08-27T14:02:53;27.70;99.90
39881;DHT22;25554;44.954;10.068;2022-08-27T14:08:15;27.80;99.90
39881;DHT22;25554;44.954;10.068;2022-08-27T14:10:48;27.90;99.90
39881;DHT22;25554;44.954;10.068;2022-08-27T14:15:44;28.00;99.90
39881;DHT22;25554;44.954;10.068;2022-08-27T14:18:32;28.00;99.90
39881;DHT22;25554;44.954;10.068;2022-08-27T14:21:00;27.90;99.90
39881;DHT22;25554;44.954;10.068;2022-08-27T14:23:28;27.90;99.90
39881;DHT22;25554;44.954;10.068;2022-08-27T14:26:00;28.10;99.90
39881;DHT22;25554;44.954;10.068;2022-08-27T14:28:26;28.20;99.90
39881;DHT22;25554;44.954;10.068;2022-08-27T14:30:53;28.20;99.90
39881;DHT22;25554;44.954;10.068;2022-08-27T14:33:19;28.30;99.90
39881;DHT22;25554;44.954;10.068;2022-08-27T14:35:46;28.30;99.90
39881;DHT22;25554;44.954;10.068;2022-08-27T14:38:14;28.30;99.90
39881;DHT22;25554;44.954;10.068;2022-08-27T14:40:43;28.50;99.90
39881;DHT22;25554;44.954;10.068;2022-08-27T14:43:10;28.60;99.90
39881;DHT22;25554;44.954;10.068;2022-08-27T14:45:37;28.80;99.90
39881;DHT22;25554;44.954;10.068;2022-08-27T14:48:11;28.80;99.90
39881;DHT22;25554;44.954;10.068;2022-08-27T14:50:39;28.80;99.90
39881;DHT22;25554;44.954;10.068;2022-08-27T14:53:05;28.90;99.90
39881;DHT22;25554;44.954;10.068;2022-08-27T14:55:31;28.90;99.90
39881;DHT22;25554;44.954;10.068;2022-08-27T14:57:58;28.90;99.90
39881;DHT22;25554;44.954;10.068;2022-08-27T15:00:25;29.00;99.90
39881;DHT22;25554;44.954;10.068;2022-08-27T15:02:52;29.20;99.90
39881;DHT22;25554;44.954;10.068;2022-08-27T15:05:20;29.40;99.90
39881;DHT22;25554;44.954;10.068;2022-08-27T15:07:47;29.70;99.90
39881;DHT22;25554;44.954;10.068;2022-08-27T15:10:13;29.80;99.90
39881;DHT22;25554;44.954;10.068;2022-08-27T15:12:40;29.80;99.90
39881;DHT22;25554;44.954;10.068;2022-08-27T15:15:08;29.90;99.90
39881;DHT22;25554;44.954;10.068;2022-08-27T15:17:34;29.80;99.90
39881;DHT22;25554;44.954;10.068;2022-08-27T15:20:06;29.50;99.90
39881;DHT22;25554;44.954;10.068;2022-08-27T15:22:35;29.50;99.90
39881;DHT22;25554;44.954;10.068;2022-08-27T15:25:02;29.50;99.90
39881;DHT22;25554;44.954;10.068;2022-08-27T15:27:30;29.60;99.90
39881;DHT22;25554;44.954;10.068;2022-08-27T15:29:58;29.70;99.90
39881;DHT22;25554;44.954;10.068;2022-08-27T15:32:27;29.80;99.90
39881;DHT22;25554;44.954;10.068;2022-08-27T15:34:55;29.70;99.90
39881;DHT22;25554;44.954;10.068;2022-08-27T15:37:22;29.70;99.90
39881;DHT22;25554;44.954;10.068;2022-08-27T15:39:49;29.60;99.90
39881;DHT22;25554;44.954;10.068;2022-08-27T15:42:15;29.50;99.90
39881;DHT22;25554;44.954;10.068;2022-08-27T15:44:46;29.40;99.90
39881;DHT22;25554;44.954;10.068;2022-08-27T15:47:13;29.40;99.90
39881;DHT22;25554;44.954;10.068;2022-08-27T15:49:39;29.30;99.90
39881;DHT22;25554;44.954;10.068;2022-08-27T15:52:07;29.20;99.90
39881;DHT22;25554;44.954;10.068;2022-08-27T15:54:34;29.10;99.90
39881;DHT22;25554;44.954;10.068;2022-08-27T15:57:00;29.10;99.90
39881;DHT22;25554;44.954;10.068;2022-08-27T15:59:27;28.90;99.90
39881;DHT22;25554;44.954;10.068;2022-08-27T16:01:53;28.70;99.90
39881;DHT22;25554;44.954;10.068;2022-08-27T16:04:21;28.80;99.90
39881;DHT22;25554;44.954;10.068;2022-08-27T16:06:47;28.90;99.90
39881;DHT22;25554;44.954;10.068;2022-08-27T16:09:15;28.90;99.90
39881;DHT22;25554;44.954;10.068;2022-08-27T16:11:42;28.80;99.90
39881;DHT22;25554;44.954;10.068;2022-08-27T16:14:11;28.70;99.90
39881;DHT22;25554;44.954;10.068;2022-08-27T16:16:39;28.70;99.90
39881;DHT22;25554;44.954;10.068;2022-08-27T16:19:06;28.80;99.90
39881;DHT22;25554;44.954;10.068;2022-08-27T16:21:33;29.00;99.90
39881;DHT22;25554;44.954;10.068;2022-08-27T16:24:00;28.80;99.90
39881;DHT22;25554;44.954;10.068;2022-08-27T16:26:27;28.80;99.90
39881;DHT22;25554;44.954;10.068;2022-08-27T16:28:54;28.80;99.90
39881;DHT22;25554;44.954;10.068;2022-08-27T16:31:20;28.60;99.90
39881;DHT22;25554;44.954;10.068;2022-08-27T16:33:47;28.50;99.90
39881;DHT22;25554;44.954;10.068;2022-08-27T16:36:13;28.40;99.90
39881;DHT22;25554;44.954;10.068;2022-08-27T16:38:40;28.40;99.90
39881;DHT22;25554;44.954;10.068;2022-08-27T16:41:07;28.40;99.90
39881;DHT22;25554;44.954;10.068;2022-08-27T16:43:33;28.20;99.90
39881;DHT22;25554;44.954;10.068;2022-08-27T16:46:00;28.10;99.90
39881;DHT22;25554;44.954;10.068;2022-08-27T16:48:27;28.00;99.90